| time (UTC) | temp F | wind direction | speed MPH | gust MPH | rain 1hr in | rain 24hr in | rain mn in | humidity % | barometer mb |
| 20260903141025 | 60 | 0 | 0.0 | 2.0 | 0.00 | 0.14 | 0.14 | 96 | 1016.2 |
| 20260903140525 | 60 | 0 | 0.0 | 2.0 | 0.00 | 0.14 | 0.14 | 96 | 1016.1 |
| 20260903140044 | 60 | 130 | 0.0 | 1.0 | 0.00 | 0.14 | 0.14 | 96 | 1016.2 |
| 20260903135525 | 61 | 0 | 0.0 | 1.0 | 0.00 | 0.14 | 0.14 | 96 | 1016.2 |
| 20260903135027 | 60 | 0 | 0.0 | 0.0 | 0.00 | 0.14 | 0.14 | 96 | 1016.2 |
| 20260903134549 | 60 | 0 | 0.0 | 0.0 | 0.00 | 0.14 | 0.14 | 96 | 1016.2 |
| 20260903134024 | 60 | 0 | 0.0 | 0.0 | 0.00 | 0.14 | 0.14 | 96 | 1016.1 |
| 20260903133527 | 60 | 0 | 0.0 | 0.0 | 0.00 | 0.14 | 0.14 | 95 | 1016.3 |
| 20260903133046 | 60 | 0 | 0.0 | 0.0 | 0.00 | 0.14 | 0.14 | 95 | 1016.3 |
| 20260903132523 | 60 | 0 | 0.0 | 1.0 | 0.00 | 0.14 | 0.14 | 95 | 1016.4 |
| 20260903132027 | 60 | 0 | 0.0 | 1.0 | 0.00 | 0.14 | 0.14 | 95 | 1016.5 |
| 20260903131601 | 60 | 0 | 0.0 | 0.0 | 0.00 | 0.14 | 0.14 | 95 | 1016.4 |
| 20260903131025 | 60 | 0 | 0.0 | 0.0 | 0.00 | 0.14 | 0.14 | 95 | 1016.5 |
| 20260903130527 | 60 | 0 | 0.0 | 0.0 | 0.00 | 0.14 | 0.14 | 95 | 1016.5 |
| 20260903130055 | 60 | 0 | 0.0 | 0.0 | 0.00 | 0.14 | 0.14 | 95 | 1016.4 |
| 20260903125525 | 60 | 0 | 0.0 | 0.0 | 0.01 | 0.14 | 0.14 | 95 | 1016.5 |
| 20260903125025 | 60 | 0 | 0.0 | 0.0 | 0.01 | 0.14 | 0.14 | 96 | 1016.4 |
| 20260903124546 | 60 | 0 | 0.0 | 0.0 | 0.01 | 0.14 | 0.14 | 96 | 1016.4 |
| 20260903124024 | 60 | 0 | 0.0 | 0.0 | 0.01 | 0.14 | 0.14 | 96 | 1016.6 |
| 20260903123524 | 60 | 0 | 0.0 | 0.0 | 0.01 | 0.14 | 0.14 | 96 | 1016.6 |
| 20260903123045 | 60 | 0 | 0.0 | 0.0 | 0.01 | 0.14 | 0.14 | 95 | 1016.8 |
| 20260903122526 | 60 | 0 | 0.0 | 0.0 | 0.01 | 0.14 | 0.14 | 95 | 1017.0 |
| 20260903122024 | 60 | 0 | 0.0 | 0.0 | 0.01 | 0.14 | 0.14 | 95 | 1017.0 |
| 20260903121557 | 60 | 0 | 0.0 | 0.0 | 0.01 | 0.14 | 0.14 | 95 | 1016.9 |
| 20260903121025 | 60 | 0 | 0.0 | 0.0 | 0.01 | 0.14 | 0.14 | 95 | 1017.0 |
| 20260903120525 | 60 | 0 | 0.0 | 0.0 | 0.01 | 0.14 | 0.14 | 95 | 1017.0 |
| 20260903120049 | 60 | 0 | 0.0 | 0.0 | 0.01 | 0.14 | 0.14 | 95 | 1017.1 |
| 20260903115524 | 60 | 0 | 0.0 | 0.0 | 0.00 | 0.13 | 0.13 | 95 | 1017.1 |
| 20260903115027 | 60 | 0 | 0.0 | 0.0 | 0.00 | 0.13 | 0.13 | 95 | 1017.1 |
| 20260903114550 | 60 | 0 | 0.0 | 0.0 | 0.00 | 0.13 | 0.13 | 95 | 1017.1 |
| 20260903114028 | 60 | 0 | 0.0 | 0.0 | 0.00 | 0.13 | 0.13 | 95 | 1017.1 |
| 20260903113527 | 60 | 0 | 0.0 | 0.0 | 0.00 | 0.13 | 0.13 | 95 | 1016.9 |
| 20260903113054 | 60 | 0 | 0.0 | 0.0 | 0.00 | 0.13 | 0.13 | 95 | 1016.7 |
| 20260903112526 | 60 | 0 | 0.0 | 0.0 | 0.00 | 0.13 | 0.13 | 95 | 1016.7 |
| 20260903112025 | 60 | 0 | 0.0 | 0.0 | 0.00 | 0.13 | 0.13 | 96 | 1016.7 |
| 20260903111546 | 60 | 0 | 0.0 | 0.0 | 0.00 | 0.13 | 0.13 | 96 | 1016.6 |
| 20260903111026 | 60 | 0 | 0.0 | 0.0 | 0.00 | 0.13 | 0.13 | 96 | 1016.7 |
| 20260903110525 | 60 | 0 | 0.0 | 0.0 | 0.00 | 0.13 | 0.13 | 96 | 1016.8 |
| 20260903110046 | 60 | 0 | 0.0 | 0.0 | 0.00 | 0.13 | 0.13 | 96 | 1016.9 |
| 20260903105528 | 60 | 0 | 0.0 | 0.0 | 0.00 | 0.13 | 0.13 | 96 | 1017.0 |
| 20260903105025 | 60 | 0 | 0.0 | 0.0 | 0.01 | 0.13 | 0.13 | 96 | 1017.0 |
| 20260903104553 | 60 | 0 | 0.0 | 0.0 | 0.01 | 0.13 | 0.13 | 96 | 1016.8 |
| 20260903104025 | 60 | 0 | 0.0 | 0.0 | 0.01 | 0.13 | 0.13 | 96 | 1017.0 |
| 20260903103525 | 60 | 0 | 0.0 | 0.0 | 0.03 | 0.13 | 0.13 | 96 | 1016.9 |
| 20260903103044 | 60 | 0 | 0.0 | 0.0 | 0.05 | 0.13 | 0.13 | 96 | 1016.9 |
| 20260903102525 | 60 | 0 | 0.0 | 0.0 | 0.06 | 0.13 | 0.13 | 96 | 1016.8 |
| 20260903102027 | 60 | 0 | 0.0 | 0.0 | 0.07 | 0.13 | 0.13 | 95 | 1016.7 |
| 20260903101552 | 60 | 0 | 0.0 | 0.0 | 0.07 | 0.13 | 0.13 | 95 | 1016.8 |
| 20260903101025 | 60 | 0 | 0.0 | 0.0 | 0.08 | 0.13 | 0.13 | 95 | 1016.9 |
| 20260903100529 | 60 | 0 | 0.0 | 0.0 | 0.09 | 0.13 | 0.13 | 95 | 1016.9 |
| 20260903100049 | 60 | 0 | 0.0 | 0.0 | 0.09 | 0.13 | 0.13 | 95 | 1016.9 |
| 20260903095525 | 60 | 0 | 0.0 | 0.0 | 0.09 | 0.13 | 0.13 | 95 | 1016.8 |
| 20260903095025 | 60 | 0 | 0.0 | 0.0 | 0.08 | 0.12 | 0.12 | 95 | 1016.9 |
| 20260903094552 | 60 | 0 | 0.0 | 0.0 | 0.08 | 0.12 | 0.12 | 95 | 1017.1 |
| 20260903094028 | 60 | 0 | 0.0 | 0.0 | 0.07 | 0.11 | 0.11 | 95 | 1017.1 |
| 20260903093527 | 60 | 0 | 0.0 | 0.0 | 0.05 | 0.09 | 0.09 | 95 | 1017.4 |
| 20260903093101 | 60 | 0 | 0.0 | 0.0 | 0.03 | 0.07 | 0.07 | 95 | 1017.5 |
| 20260903092525 | 60 | 0 | 0.0 | 0.0 | 0.03 | 0.07 | 0.07 | 95 | 1017.5 |
| 20260903092025 | 60 | 0 | 0.0 | 0.0 | 0.02 | 0.06 | 0.06 | 95 | 1017.4 |
| 20260903091552 | 60 | 0 | 0.0 | 0.0 | 0.02 | 0.06 | 0.06 | 95 | 1017.5 |
| 20260903091023 | 60 | 0 | 0.0 | 0.0 | 0.01 | 0.05 | 0.05 | 95 | 1017.6 |
| 20260903090526 | 60 | 0 | 0.0 | 0.0 | 0.00 | 0.04 | 0.04 | 95 | 1017.4 |
| 20260903090049 | 60 | 0 | 0.0 | 0.0 | 0.00 | 0.04 | 0.04 | 95 | 1017.3 |
| 20260903085524 | 61 | 0 | 0.0 | 0.0 | 0.00 | 0.04 | 0.04 | 95 | 1017.5 |
| 20260903085025 | 61 | 0 | 0.0 | 0.0 | 0.01 | 0.04 | 0.04 | 95 | 1017.6 |
| 20260903084546 | 61 | 0 | 0.0 | 0.0 | 0.01 | 0.04 | 0.04 | 95 | 1017.6 |
| 20260903084025 | 60 | 0 | 0.0 | 0.0 | 0.01 | 0.04 | 0.04 | 95 | 1017.5 |
| 20260903083525 | 60 | 0 | 0.0 | 0.0 | 0.02 | 0.04 | 0.04 | 95 | 1017.3 |
| 20260903083048 | 60 | 0 | 0.0 | 0.0 | 0.02 | 0.04 | 0.04 | 95 | 1017.2 |
| 20260903082525 | 60 | 0 | 0.0 | 0.0 | 0.02 | 0.04 | 0.04 | 95 | 1017.2 |
| 20260903082025 | 60 | 0 | 0.0 | 0.0 | 0.03 | 0.04 | 0.04 | 95 | 1017.0 |
| 20260903081543 | 61 | 0 | 0.0 | 0.0 | 0.03 | 0.04 | 0.04 | 95 | 1016.9 |
| 20260903081026 | 61 | 0 | 0.0 | 0.0 | 0.03 | 0.04 | 0.04 | 95 | 1017.1 |
| 20260903080531 | 61 | 0 | 0.0 | 0.0 | 0.03 | 0.04 | 0.04 | 95 | 1017.0 |
| 20260903080048 | 61 | 0 | 0.0 | 0.0 | 0.04 | 0.04 | 0.04 | 95 | 1017.2 |
| 20260903075526 | 61 | 0 | 0.0 | 0.0 | 0.04 | 0.04 | 0.04 | 94 | 1017.3 |
| 20260903075025 | 61 | 0 | 0.0 | 0.0 | 0.03 | 0.03 | 0.03 | 94 | 1017.4 |
| 20260903074544 | 61 | 0 | 0.0 | 0.0 | 0.03 | 0.03 | 0.03 | 94 | 1017.6 |
| 20260903074025 | 61 | 0 | 0.0 | 0.0 | 0.03 | 0.03 | 0.03 | 94 | 1017.6 |
| 20260903073525 | 61 | 0 | 0.0 | 0.0 | 0.02 | 0.02 | 0.02 | 94 | 1017.7 |
| 20260903073044 | 61 | 0 | 0.0 | 0.0 | 0.02 | 0.02 | 0.02 | 94 | 1017.8 |
| 20260903072524 | 61 | 0 | 0.0 | 0.0 | 0.02 | 0.02 | 0.02 | 94 | 1017.8 |
| 20260903072025 | 61 | 0 | 0.0 | 0.0 | 0.01 | 0.01 | 0.01 | 94 | 1017.9 |
| 20260903071543 | 61 | 0 | 0.0 | 0.0 | 0.01 | 0.01 | 0.01 | 93 | 1018.1 |
| 20260903071023 | 61 | 0 | 0.0 | 0.0 | 0.01 | 0.01 | 0.01 | 93 | 1018.3 |
| 20260903070527 | 61 | 0 | 0.0 | 0.0 | 0.01 | 0.01 | 0.01 | 93 | 1018.4 |
| 20260903070048 | 61 | 0 | 0.0 | 0.0 | 0.00 | 0.00 | 0.00 | 93 | 1018.6 |
| 20260903065526 | 61 | 0 | 0.0 | 0.0 | 0.00 | 0.00 | 0.00 | 93 | 1018.6 |
| 20260903065025 | 61 | 0 | 0.0 | 0.0 | 0.00 | 0.00 | 0.00 | 93 | 1018.7 |
| 20260903064542 | 61 | 0 | 0.0 | 0.0 | 0.00 | 0.00 | 0.00 | 93 | 1018.6 |
| 20260903064024 | 61 | 0 | 0.0 | 0.0 | 0.00 | 0.00 | 0.00 | 93 | 1018.8 |
| 20260903063527 | 61 | 0 | 0.0 | 0.0 | 0.00 | 0.00 | 0.00 | 93 | 1018.7 |
| 20260903063044 | 61 | 0 | 0.0 | 0.0 | 0.00 | 0.00 | 0.00 | 93 | 1018.8 |
| 20260903062525 | 61 | 0 | 0.0 | 0.0 | 0.00 | 0.00 | 0.00 | 93 | 1018.7 |
| 20260903062030 | 61 | 0 | 0.0 | 0.0 | 0.00 | 0.00 | 0.00 | 93 | 1018.7 |
| 20260903061548 | 61 | 0 | 0.0 | 0.0 | 0.00 | 0.00 | 0.00 | 93 | 1018.8 |
| 20260903061024 | 61 | 0 | 0.0 | 0.0 | 0.00 | 0.00 | 0.00 | 93 | 1019.0 |
| 20260903060525 | 61 | 0 | 0.0 | 0.0 | 0.00 | 0.00 | 0.00 | 93 | 1019.0 |
| 20260903060058 | 61 | 0 | 0.0 | 0.0 | 0.00 | 0.00 | 0.00 | 92 | 1019.0 |
| 20260903055524 | 61 | 0 | 0.0 | 0.0 | 0.00 | 0.00 | 0.00 | 92 | 1019.1 |
| 20260903055025 | 61 | 0 | 0.0 | 0.0 | 0.00 | 0.00 | 0.00 | 92 | 1019.1 |
| 20260903054544 | 61 | 0 | 0.0 | 0.0 | 0.00 | 0.00 | 0.00 | 92 | 1019.2 |
| 20260903054025 | 61 | 0 | 0.0 | 0.0 | 0.00 | 0.00 | 0.00 | 92 | 1019.4 |
| 20260903053527 | 61 | 0 | 0.0 | 0.0 | 0.00 | 0.00 | 0.00 | 92 | 1019.6 |
| 20260903053053 | 61 | 0 | 0.0 | 0.0 | 0.00 | 0.00 | 0.00 | 92 | 1019.4 |
| 20260903052527 | 61 | 0 | 0.0 | 0.0 | 0.00 | 0.00 | 0.00 | 92 | 1019.5 |
| 20260903052025 | 61 | 0 | 0.0 | 0.0 | 0.00 | 0.00 | 0.00 | 92 | 1019.6 |
| 20260903051548 | 61 | 0 | 0.0 | 0.0 | 0.00 | 0.00 | 0.00 | 91 | 1019.6 |
| 20260903051024 | 61 | 0 | 0.0 | 0.0 | 0.00 | 0.00 | 0.00 | 91 | 1019.7 |
| 20260903050524 | 60 | 0 | 0.0 | 0.0 | 0.00 | 0.00 | 0.00 | 91 | 1019.5 |
| 20260903050049 | 60 | 0 | 0.0 | 0.0 | 0.00 | 0.00 | 0.00 | 91 | 1019.5 |
| 20260903045525 | 60 | 0 | 0.0 | 0.0 | 0.00 | 0.00 | 0.00 | 91 | 1019.5 |
| 20260903045025 | 60 | 0 | 0.0 | 0.0 | 0.00 | 0.00 | 0.00 | 91 | 1019.6 |
| 20260903044552 | 60 | 0 | 0.0 | 0.0 | 0.00 | 0.00 | 0.00 | 90 | 1019.7 |
| 20260903044029 | 61 | 0 | 0.0 | 0.0 | 0.00 | 0.00 | 0.00 | 90 | 1019.8 |
| 20260903043525 | 61 | 0 | 0.0 | 0.0 | 0.00 | 0.00 | 0.00 | 90 | 1019.9 |
| 20260903043049 | 61 | 0 | 0.0 | 0.0 | 0.00 | 0.00 | 0.00 | 90 | 1020.1 |
| 20260903042526 | 61 | 0 | 0.0 | 0.0 | 0.00 | 0.00 | 0.00 | 90 | 1020.2 |
| 20260903042025 | 61 | 0 | 0.0 | 0.0 | 0.00 | 0.00 | 0.00 | 90 | 1020.3 |
| 20260903041545 | 61 | 0 | 0.0 | 0.0 | 0.00 | 0.00 | 0.00 | 90 | 1020.4 |
| 20260903041025 | 61 | 0 | 0.0 | 0.0 | 0.00 | 0.00 | 0.00 | 90 | 1020.5 |
| 20260903040526 | 61 | 0 | 0.0 | 0.0 | 0.00 | 0.00 | 0.00 | 90 | 1020.4 |
| 20260903040056 | 61 | 0 | 0.0 | 0.0 | 0.00 | 0.00 | 0.00 | 90 | 1020.4 |
| 20260903035527 | 61 | 0 | 0.0 | 0.0 | 0.00 | 0.00 | 0.00 | 89 | 1020.4 |
| 20260903035024 | 61 | 0 | 0.0 | 0.0 | 0.00 | 0.00 | 0.00 | 89 | 1020.4 |
| 20260903034548 | 61 | 0 | 0.0 | 0.0 | 0.00 | 0.00 | 0.00 | 89 | 1020.3 |
| 20260903034028 | 61 | 0 | 0.0 | 0.0 | 0.00 | 0.00 | 0.00 | 89 | 1020.5 |
| 20260903033526 | 61 | 0 | 0.0 | 0.0 | 0.00 | 0.00 | 0.00 | 89 | 1020.5 |
| 20260903033048 | 61 | 0 | 0.0 | 0.0 | 0.00 | 0.00 | 0.00 | 89 | 1020.6 |
| 20260903032533 | 61 | 0 | 0.0 | 0.0 | 0.00 | 0.00 | 0.00 | 89 | 1020.6 |
| 20260903032024 | 61 | 0 | 0.0 | 0.0 | 0.00 | 0.00 | 0.00 | 89 | 1020.7 |
| 20260903031544 | 61 | 0 | 0.0 | 0.0 | 0.00 | 0.00 | 0.00 | 89 | 1020.7 |
| 20260903031029 | 61 | 0 | 0.0 | 0.0 | 0.00 | 0.00 | 0.00 | 89 | 1020.6 |
| 20260903030525 | 61 | 0 | 0.0 | 0.0 | 0.00 | 0.00 | 0.00 | 89 | 1020.6 |
| 20260903030053 | 61 | 0 | 0.0 | 0.0 | 0.00 | 0.00 | 0.00 | 89 | 1020.5 |
| 20260903025528 | 61 | 0 | 0.0 | 0.0 | 0.00 | 0.00 | 0.00 | 89 | 1020.6 |
| 20260903025027 | 61 | 0 | 0.0 | 0.0 | 0.00 | 0.00 | 0.00 | 89 | 1020.7 |
| 20260903024550 | 61 | 0 | 0.0 | 0.0 | 0.00 | 0.00 | 0.00 | 89 | 1020.7 |
| 20260903024025 | 61 | 0 | 0.0 | 0.0 | 0.00 | 0.00 | 0.00 | 89 | 1020.9 |
| 20260903023530 | 61 | 0 | 0.0 | 0.0 | 0.00 | 0.00 | 0.00 | 89 | 1021.0 |
| 20260903023047 | 61 | 0 | 0.0 | 0.0 | 0.00 | 0.00 | 0.00 | 88 | 1021.0 |
| 20260903022525 | 61 | 0 | 0.0 | 0.0 | 0.00 | 0.00 | 0.00 | 88 | 1021.0 |
| 20260903022030 | 61 | 0 | 0.0 | 0.0 | 0.00 | 0.00 | 0.00 | 88 | 1021.0 |
| 20260903021549 | 61 | 0 | 0.0 | 1.0 | 0.00 | 0.00 | 0.00 | 88 | 1021.0 |
| 20260903021025 | 61 | 0 | 0.0 | 1.0 | 0.00 | 0.00 | 0.00 | 88 | 1020.9 |
| 20260903020525 | 61 | 0 | 0.0 | 0.0 | 0.00 | 0.00 | 0.00 | 88 | 1020.9 |
| 20260903020044 | 61 | 0 | 0.0 | 0.0 | 0.00 | 0.00 | 0.00 | 88 | 1020.8 |
| 20260903015525 | 61 | 0 | 0.0 | 1.0 | 0.00 | 0.00 | 0.00 | 88 | 1020.8 |
| 20260903015023 | 61 | 0 | 0.0 | 1.0 | 0.00 | 0.00 | 0.00 | 88 | 1020.8 |
| 20260903014551 | 61 | 0 | 0.0 | 0.0 | 0.00 | 0.00 | 0.00 | 88 | 1020.7 |
| 20260903014029 | 61 | 0 | 0.0 | 0.0 | 0.00 | 0.00 | 0.00 | 87 | 1020.8 |
| 20260903013527 | 61 | 0 | 0.0 | 0.0 | 0.00 | 0.00 | 0.00 | 87 | 1020.9 |
| 20260903013043 | 61 | 0 | 0.0 | 0.0 | 0.00 | 0.00 | 0.00 | 87 | 1021.0 |
| 20260903012527 | 61 | 0 | 0.0 | 0.0 | 0.00 | 0.00 | 0.00 | 87 | 1020.9 |
| 20260903012030 | 61 | 0 | 0.0 | 0.0 | 0.00 | 0.00 | 0.00 | 87 | 1020.9 |
| 20260903011600 | 61 | 0 | 0.0 | 0.0 | 0.00 | 0.00 | 0.00 | 87 | 1021.0 |
| 20260903011024 | 61 | 0 | 0.0 | 0.0 | 0.00 | 0.00 | 0.00 | 87 | 1021.2 |
| 20260903010526 | 61 | 0 | 0.0 | 0.0 | 0.00 | 0.00 | 0.00 | 87 | 1020.9 |
| 20260903010045 | 61 | 0 | 0.0 | 0.0 | 0.00 | 0.00 | 0.00 | 87 | 1020.8 |
| 20260903005525 | 61 | 0 | 0.0 | 0.0 | 0.00 | 0.00 | 0.00 | 86 | 1020.7 |
| 20260903005027 | 61 | 0 | 0.0 | 0.0 | 0.00 | 0.00 | 0.00 | 86 | 1020.6 |
| 20260903004550 | 61 | 0 | 0.0 | 0.0 | 0.00 | 0.00 | 0.00 | 86 | 1020.7 |
| 20260903004027 | 62 | 0 | 0.0 | 0.0 | 0.00 | 0.00 | 0.00 | 85 | 1020.6 |
| 20260903003527 | 62 | 0 | 0.0 | 0.0 | 0.00 | 0.00 | 0.00 | 85 | 1020.6 |
| 20260903003053 | 62 | 0 | 0.0 | 0.0 | 0.00 | 0.00 | 0.00 | 85 | 1020.6 |
| 20260903002524 | 62 | 0 | 0.0 | 0.0 | 0.00 | 0.00 | 0.00 | 84 | 1020.6 |
| 20260903002023 | 62 | 0 | 0.0 | 0.0 | 0.00 | 0.00 | 0.00 | 84 | 1020.8 |
| 20260903001545 | 62 | 0 | 0.0 | 0.0 | 0.00 | 0.00 | 0.00 | 83 | 1020.9 |
| 20260903001027 | 63 | 0 | 0.0 | 0.0 | 0.00 | 0.00 | 0.00 | 83 | 1021.0 |
| 20260903000525 | 63 | 0 | 0.0 | 0.0 | 0.00 | 0.00 | 0.00 | 82 | 1021.0 |
| 20260903000051 | 63 | 0 | 0.0 | 0.0 | 0.00 | 0.00 | 0.00 | 82 | 1021.0 |
| 20260902235525 | 63 | 0 | 0.0 | 0.0 | 0.00 | 0.00 | 0.00 | 81 | 1021.2 |
| 20260902235026 | 63 | 0 | 0.0 | 0.0 | 0.00 | 0.00 | 0.00 | 81 | 1021.1 |
| 20260902234557 | 63 | 0 | 0.0 | 1.0 | 0.00 | 0.00 | 0.00 | 80 | 1021.2 |
| 20260902234024 | 63 | 0 | 0.0 | 1.0 | 0.00 | 0.00 | 0.00 | 79 | 1021.1 |
| 20260902233527 | 63 | 0 | 0.0 | 0.0 | 0.00 | 0.00 | 0.00 | 79 | 1021.2 |
| 20260902233051 | 64 | 0 | 0.0 | 0.0 | 0.00 | 0.00 | 0.00 | 78 | 1021.1 |
| 20260902232524 | 64 | 0 | 0.0 | 0.0 | 0.00 | 0.00 | 0.00 | 78 | 1021.2 |
| 20260902232024 | 64 | 0 | 0.0 | 0.0 | 0.00 | 0.00 | 0.00 | 77 | 1021.3 |
| 20260902231547 | 64 | 0 | 0.0 | 0.0 | 0.00 | 0.00 | 0.00 | 76 | 1021.2 |
| 20260902231025 | 64 | 0 | 0.0 | 0.0 | 0.00 | 0.00 | 0.00 | 76 | 1021.2 |
| 20260902230526 | 64 | 0 | 0.0 | 0.0 | 0.00 | 0.00 | 0.00 | 76 | 1021.2 |
| 20260902230056 | 65 | 0 | 0.0 | 0.0 | 0.00 | 0.00 | 0.00 | 75 | 1021.0 |
| 20260902225528 | 65 | 0 | 0.0 | 0.0 | 0.00 | 0.00 | 0.00 | 75 | 1021.1 |
| 20260902225026 | 65 | 0 | 0.0 | 0.0 | 0.00 | 0.00 | 0.00 | 74 | 1021.4 |
| 20260902224600 | 65 | 0 | 0.0 | 0.0 | 0.00 | 0.00 | 0.00 | 73 | 1021.7 |
| 20260902224027 | 65 | 0 | 0.0 | 0.0 | 0.00 | 0.00 | 0.00 | 73 | 1021.6 |
| 20260902223524 | 66 | 0 | 0.0 | 1.0 | 0.00 | 0.00 | 0.00 | 72 | 1021.7 |
| 20260902223044 | 66 | 0 | 0.0 | 1.0 | 0.00 | 0.00 | 0.00 | 71 | 1021.8 |
| 20260902222524 | 66 | 0 | 0.0 | 1.0 | 0.00 | 0.00 | 0.00 | 71 | 1021.8 |
| 20260902222025 | 66 | 0 | 0.0 | 0.0 | 0.00 | 0.00 | 0.00 | 69 | 1021.8 |
| 20260902221544 | 66 | 0 | 0.0 | 1.0 | 0.00 | 0.00 | 0.00 | 69 | 1021.8 |
| 20260902221025 | 66 | 0 | 0.0 | 1.0 | 0.00 | 0.00 | 0.00 | 69 | 1021.5 |
| 20260902220525 | 67 | 0 | 0.0 | 1.0 | 0.00 | 0.00 | 0.00 | 69 | 1021.5 |
| 20260902220055 | 67 | 0 | 0.0 | 0.0 | 0.00 | 0.00 | 0.00 | 69 | 1021.4 |
| 20260902215524 | 67 | 0 | 0.0 | 0.0 | 0.00 | 0.00 | 0.00 | 69 | 1021.4 |
| 20260902215026 | 67 | 0 | 0.0 | 0.0 | 0.00 | 0.00 | 0.00 | 68 | 1021.4 |
| 20260902214559 | 67 | 0 | 0.0 | 0.0 | 0.00 | 0.00 | 0.00 | 67 | 1021.4 |
| 20260902214027 | 67 | 0 | 0.0 | 0.0 | 0.00 | 0.00 | 0.00 | 67 | 1021.3 |
| 20260902213525 | 67 | 0 | 0.0 | 0.0 | 0.00 | 0.00 | 0.00 | 67 | 1021.5 |
| 20260902213048 | 67 | 0 | 0.0 | 1.0 | 0.00 | 0.00 | 0.00 | 67 | 1021.6 |
| 20260902212526 | 68 | 0 | 0.0 | 2.0 | 0.00 | 0.00 | 0.00 | 67 | 1021.7 |
| 20260902212025 | 68 | 0 | 0.0 | 2.0 | 0.00 | 0.00 | 0.00 | 66 | 1021.6 |
| 20260902211544 | 68 | 0 | 0.0 | 2.0 | 0.00 | 0.00 | 0.00 | 67 | 1021.8 |
| 20260902211024 | 68 | 0 | 0.0 | 1.0 | 0.00 | 0.00 | 0.00 | 66 | 1021.8 |
| 20260902210529 | 68 | 0 | 0.0 | 1.0 | 0.00 | 0.00 | 0.00 | 66 | 1022.0 |
| 20260902210045 | 68 | 0 | 0.0 | 2.0 | 0.00 | 0.00 | 0.00 | 64 | 1021.9 |
| 20260902205524 | 68 | 0 | 0.0 | 2.0 | 0.00 | 0.00 | 0.00 | 64 | 1021.9 |
| 20260902205025 | 68 | 0 | 0.0 | 2.0 | 0.00 | 0.00 | 0.00 | 65 | 1021.7 |
| 20260902204543 | 68 | 0 | 0.0 | 0.0 | 0.00 | 0.00 | 0.00 | 65 | 1022.0 |
| 20260902204030 | 68 | 0 | 0.0 | 1.0 | 0.00 | 0.00 | 0.00 | 64 | 1022.0 |
| 20260902203524 | 68 | 0 | 0.0 | 5.0 | 0.00 | 0.00 | 0.00 | 65 | 1022.0 |
| 20260902203049 | 68 | 0 | 0.0 | 5.0 | 0.00 | 0.00 | 0.00 | 65 | 1021.9 |
| 20260902202526 | 68 | 0 | 0.0 | 1.0 | 0.00 | 0.00 | 0.00 | 64 | 1021.8 |
| 20260902202024 | 69 | 0 | 0.0 | 1.0 | 0.00 | 0.00 | 0.00 | 64 | 1021.9 |
| 20260902201547 | 69 | 0 | 0.0 | 3.0 | 0.00 | 0.00 | 0.00 | 65 | 1021.8 |
| 20260902201025 | 69 | 0 | 0.0 | 4.0 | 0.00 | 0.00 | 0.00 | 64 | 1021.9 |
| 20260902200524 | 69 | 0 | 0.0 | 5.0 | 0.00 | 0.00 | 0.00 | 63 | 1021.9 |
| 20260902200046 | 69 | 0 | 0.0 | 5.0 | 0.00 | 0.00 | 0.00 | 64 | 1022.0 |
| 20260902195527 | 70 | 0 | 0.0 | 5.0 | 0.00 | 0.00 | 0.00 | 65 | 1022.3 |
| 20260902195025 | 70 | 0 | 0.0 | 2.0 | 0.00 | 0.00 | 0.00 | 64 | 1022.2 |
| 20260902194541 | 70 | 0 | 0.0 | 2.0 | 0.00 | 0.00 | 0.00 | 63 | 1022.4 |
| 20260902194027 | 70 | 0 | 0.0 | 2.0 | 0.00 | 0.00 | 0.00 | 64 | 1022.3 |
| 20260902193526 | 70 | 0 | 0.0 | 5.0 | 0.00 | 0.00 | 0.00 | 64 | 1022.4 |
| 20260902193050 | 70 | 0 | 0.0 | 5.0 | 0.00 | 0.00 | 0.00 | 64 | 1022.4 |
| 20260902192525 | 70 | 0 | 0.0 | 2.0 | 0.00 | 0.00 | 0.00 | 65 | 1022.4 |
| 20260902192023 | 70 | 0 | 0.0 | 1.0 | 0.00 | 0.00 | 0.00 | 63 | 1022.4 |
| 20260902191548 | 70 | 0 | 0.0 | 4.0 | 0.00 | 0.00 | 0.00 | 64 | 1022.5 |
| 20260902191026 | 70 | 0 | 0.0 | 4.0 | 0.00 | 0.00 | 0.00 | 63 | 1022.7 |
| 20260902190528 | 70 | 0 | 0.0 | 4.0 | 0.00 | 0.00 | 0.00 | 63 | 1022.5 |
| 20260902190043 | 70 | 0 | 0.0 | 1.0 | 0.00 | 0.00 | 0.00 | 62 | 1022.6 |
| 20260902185525 | 71 | 0 | 0.0 | 0.0 | 0.00 | 0.00 | 0.00 | 62 | 1022.6 |
| 20260902185028 | 71 | 0 | 0.0 | 0.0 | 0.00 | 0.00 | 0.00 | 63 | 1022.5 |
| 20260902184548 | 71 | 0 | 0.0 | 0.0 | 0.00 | 0.00 | 0.00 | 64 | 1022.5 |
| 20260902184026 | 71 | 0 | 0.0 | 2.0 | 0.00 | 0.00 | 0.00 | 62 | 1022.4 |
| 20260902183528 | 71 | 0 | 0.0 | 2.0 | 0.00 | 0.00 | 0.00 | 63 | 1022.4 |
| 20260902183057 | 71 | 0 | 0.0 | 2.0 | 0.00 | 0.00 | 0.00 | 63 | 1022.4 |
| 20260902182526 | 71 | 0 | 0.0 | 0.0 | 0.00 | 0.00 | 0.00 | 63 | 1022.4 |
| 20260902182026 | 71 | 0 | 0.0 | 5.0 | 0.00 | 0.00 | 0.00 | 61 | 1022.4 |
| 20260902181544 | 71 | 0 | 0.0 | 5.0 | 0.00 | 0.00 | 0.00 | 60 | 1022.4 |
| 20260902181028 | 71 | 102 | 0.0 | 5.0 | 0.00 | 0.00 | 0.00 | 61 | 1022.3 |
| 20260902180525 | 71 | 0 | 0.0 | 6.0 | 0.00 | 0.00 | 0.00 | 60 | 1022.2 |
| 20260902180050 | 71 | 0 | 0.0 | 6.0 | 0.00 | 0.00 | 0.00 | 59 | 1022.4 |
| 20260902175525 | 71 | 0 | 0.0 | 6.0 | 0.00 | 0.00 | 0.00 | 59 | 1022.3 |
| 20260902175025 | 71 | 0 | 0.0 | 5.0 | 0.00 | 0.00 | 0.00 | 59 | 1022.4 |
| 20260902174553 | 72 | 0 | 0.0 | 4.0 | 0.00 | 0.00 | 0.00 | 60 | 1022.4 |
| 20260902174025 | 71 | 0 | 0.0 | 2.0 | 0.00 | 0.00 | 0.00 | 59 | 1022.3 |
| 20260902173526 | 71 | 0 | 0.0 | 0.0 | 0.00 | 0.00 | 0.00 | 60 | 1022.3 |
| 20260902173107 | 71 | 0 | 0.0 | 5.0 | 0.00 | 0.00 | 0.00 | 59 | 1022.4 |
| 20260902172525 | 71 | 0 | 0.0 | 5.0 | 0.00 | 0.00 | 0.00 | 59 | 1022.4 |
| 20260902172031 | 71 | 106 | 0.0 | 4.0 | 0.00 | 0.00 | 0.00 | 59 | 1022.3 |
| 20260902171545 | 71 | 112 | 0.0 | 4.0 | 0.00 | 0.00 | 0.00 | 58 | 1022.3 |
| 20260902171029 | 72 | 0 | 0.0 | 0.0 | 0.00 | 0.00 | 0.00 | 58 | 1022.2 |
| 20260902170526 | 72 | 0 | 0.0 | 0.0 | 0.00 | 0.00 | 0.00 | 59 | 1022.3 |
| 20260902170057 | 72 | 0 | 0.0 | 0.0 | 0.00 | 0.00 | 0.00 | 60 | 1022.2 |
| 20260902165530 | 71 | 0 | 0.0 | 1.0 | 0.00 | 0.00 | 0.00 | 58 | 1022.1 |
| 20260902165027 | 71 | 0 | 0.0 | 1.0 | 0.00 | 0.00 | 0.00 | 56 | 1022.4 |
| 20260902164544 | 72 | 0 | 0.0 | 1.0 | 0.00 | 0.00 | 0.00 | 57 | 1022.5 |
| 20260902164026 | 72 | 0 | 0.0 | 1.0 | 0.00 | 0.00 | 0.00 | 60 | 1022.7 |
| 20260902163524 | 72 | 0 | 0.0 | 1.0 | 0.00 | 0.00 | 0.00 | 59 | 1022.7 |
| 20260902163042 | 72 | 0 | 0.0 | 1.0 | 0.00 | 0.00 | 0.00 | 62 | 1022.8 |
| 20260902162524 | 72 | 0 | 0.0 | 1.0 | 0.00 | 0.00 | 0.00 | 60 | 1022.9 |
| 20260902162024 | 72 | 0 | 0.0 | 2.0 | 0.00 | 0.00 | 0.00 | 60 | 1022.9 |
| 20260902161543 | 72 | 0 | 0.0 | 2.0 | 0.00 | 0.00 | 0.00 | 60 | 1022.9 |
| 20260902161026 | 72 | 0 | 0.0 | 2.0 | 0.00 | 0.00 | 0.00 | 62 | 1022.8 |
| 20260902160527 | 72 | 0 | 0.0 | 1.0 | 0.00 | 0.00 | 0.00 | 65 | 1022.9 |
| 20260902160059 | 71 | 0 | 0.0 | 3.0 | 0.00 | 0.00 | 0.00 | 64 | 1022.9 |
| 20260902155526 | 71 | 0 | 0.0 | 3.0 | 0.00 | 0.00 | 0.00 | 63 | 1022.8 |
| 20260902155027 | 71 | 0 | 0.0 | 3.0 | 0.00 | 0.00 | 0.00 | 62 | 1022.9 |
| 20260902154546 | 71 | 0 | 0.0 | 3.0 | 0.00 | 0.00 | 0.00 | 64 | 1023.1 |
| 20260902154031 | 70 | 0 | 0.0 | 0.0 | 0.00 | 0.00 | 0.00 | 65 | 1023.1 |
| 20260902153526 | 70 | 0 | 0.0 | 0.0 | 0.00 | 0.00 | 0.00 | 69 | 1023.1 |
| 20260902153043 | 70 | 0 | 0.0 | 0.0 | 0.00 | 0.00 | 0.00 | 67 | 1023.0 |
| 20260902152524 | 70 | 0 | 0.0 | 1.0 | 0.00 | 0.00 | 0.00 | 66 | 1023.1 |
| 20260902152023 | 69 | 0 | 0.0 | 1.0 | 0.00 | 0.00 | 0.00 | 66 | 1023.1 |
| 20260902151549 | 69 | 0 | 0.0 | 3.0 | 0.00 | 0.00 | 0.00 | 67 | 1023.2 |
| 20260902151027 | 69 | 0 | 0.0 | 3.0 | 0.00 | 0.00 | 0.00 | 67 | 1023.2 |
| 20260902150525 | 69 | 0 | 0.0 | 0.0 | 0.00 | 0.00 | 0.00 | 68 | 1023.2 |
| 20260902150048 | 69 | 0 | 0.0 | 1.0 | 0.00 | 0.00 | 0.00 | 68 | 1023.2 |
| 20260902145524 | 68 | 0 | 0.0 | 1.0 | 0.00 | 0.00 | 0.00 | 69 | 1023.4 |
| 20260902145028 | 68 | 0 | 0.0 | 1.0 | 0.00 | 0.00 | 0.00 | 68 | 1023.2 |
| 20260902144541 | 68 | 0 | 0.0 | 0.0 | 0.00 | 0.00 | 0.00 | 70 | 1023.2 |
| 20260902144026 | 68 | 0 | 0.0 | 0.0 | 0.00 | 0.00 | 0.00 | 70 | 1023.4 |
| 20260902143529 | 68 | 0 | 0.0 | 6.0 | 0.00 | 0.00 | 0.00 | 69 | 1023.3 |
| 20260902143042 | 68 | 0 | 0.0 | 6.0 | 0.00 | 0.00 | 0.00 | 68 | 1023.3 |
| 20260902142528 | 68 | 332 | 0.0 | 2.0 | 0.00 | 0.00 | 0.00 | 68 | 1023.3 |
| 20260902142025 | 68 | 0 | 0.0 | 2.0 | 0.00 | 0.00 | 0.00 | 69 | 1023.2 |
| 20260902141556 | 67 | 0 | 0.0 | 2.0 | 0.00 | 0.00 | 0.00 | 71 | 1023.2 |